臺北飛航情報區 - 掃描席(區管/近場)

METAR RCTP 210030Z 02003KT 9999 FEW015 SCT100 21/17 Q1016 NOSIG RMK A3003=

站台狀態:Online
最後更新:2021-01-21 08:30:02